Time;durP1;ratioP1;P1;durP2;ratioP2;P2;SDS_P1;SDS_P2;PMS_P1;PMS_P2;Temp;Humidity;BMP_temperature;BMP_pressure;BME280_temperature;BME280_humidity;BME280_pressure;Samples;Min_cycle;Max_cycle;Signal;HPM_P1;HPM_P2
2022/05/05 00:01:32;;;;;;;5.93;5.10;;;;;;;15.79;66.21;101711.56;5071752;28;20032;-83
2022/05/05 00:03:58;;;;;;;6.43;4.70;;;;;;;15.82;66.26;101719.63;5073177;28;20504;-83
2022/05/05 00:06:25;;;;;;;6.22;5.20;;;;;;;15.82;66.01;101717.00;5071330;28;20028;-83
2022/05/05 00:08:51;;;;;;;5.80;5.10;;;;;;;15.81;66.19;101720.44;5072933;28;20024;-83
2022/05/05 00:16:44;;;;;;;7.68;4.78;;;;;;;15.74;66.18;101719.25;5072327;28;20249;-83
2022/05/05 00:19:10;;;;;;;6.95;5.18;;;;;;;15.74;65.85;101718.34;5072391;28;20020;-83
2022/05/05 00:21:54;;;;;;;5.65;4.85;;;;;;;15.79;66.42;101716.81;5071924;28;20485;-83
2022/05/05 00:24:20;;;;;;;5.78;4.78;;;;;;;15.77;66.09;101719.41;5071489;28;20021;-83
2022/05/05 00:26:46;;;;;;;7.32;4.72;;;;;;;15.76;66.01;101706.16;5070984;28;20037;-83
2022/05/05 00:29:12;;;;;;;5.63;4.32;;;;;;;15.69;65.97;101704.94;5072533;28;20036;-83
2022/05/05 00:31:38;;;;;;;6.22;5.00;;;;;;;15.67;65.79;101704.84;5070338;28;20039;-83
2022/05/05 00:34:03;;;;;;;6.72;4.90;;;;;;;15.73;65.78;101716.56;5070954;28;20024;-83
2022/05/05 00:36:29;;;;;;;4.85;4.30;;;;;;;15.68;65.84;101711.00;5071288;28;20028;-83
2022/05/05 00:38:55;;;;;;;7.20;4.70;;;;;;;15.72;65.78;101720.00;5071967;28;20502;-82
2022/05/05 00:41:21;;;;;;;6.80;4.57;;;;;;;15.72;65.64;101717.38;5072203;28;20119;-83
2022/05/05 00:43:47;;;;;;;;;;;;;;;15.73;66.07;101717.47;5071799;28;20028;-83
2022/05/05 00:46:12;;;;;;;6.47;4.63;;;;;;;15.65;65.90;101713.50;5086888;28;20325;-83
2022/05/05 00:48:38;;;;;;;7.22;4.72;;;;;;;15.66;65.90;101723.19;5069819;28;20021;-82
2022/05/05 00:51:04;;;;;;;6.13;5.00;;;;;;;15.65;66.01;101721.41;5062200;28;20413;-83
2022/05/05 00:53:29;;;;;;;5.28;4.72;;;;;;;15.58;65.99;101717.59;5072135;28;20029;-83
2022/05/05 00:56:14;;;;;;;5.78;4.55;;;;;;;15.54;66.01;101713.00;5071647;28;20032;-84
2022/05/05 00:58:42;;;;;;;5.22;4.63;;;;;;;15.62;66.10;101711.63;5070614;28;20066;-82
2022/05/05 01:01:09;;;;;;;10.77;5.00;;;;;;;15.57;65.84;101704.34;5072146;28;20078;-83
2022/05/05 01:03:34;;;;;;;;;;;;;;;15.65;65.90;101719.66;5071448;28;20024;-83
2022/05/05 01:06:01;;;;;;;5.88;4.90;;;;;;;15.37;65.72;101679.69;5087947;28;19912;-82
2022/05/05 01:08:27;;;;;;;5.13;4.55;;;;;;;15.46;66.00;101698.56;5070818;28;20456;-82
2022/05/05 01:10:53;;;;;;;5.35;4.68;;;;;;;15.51;65.72;101699.66;5071869;28;20048;-83
2022/05/05 01:13:18;;;;;;;5.75;4.88;;;;;;;15.56;65.89;101706.06;5070540;28;20025;-83
2022/05/05 01:15:44;;;;;;;6.20;4.90;;;;;;;15.50;65.90;101700.50;5071955;28;20093;-83
2022/05/05 01:18:10;;;;;;;5.30;4.30;;;;;;;15.56;65.88;101706.06;5070781;28;20028;-83
2022/05/05 01:20:54;;;;;;;6.28;4.93;;;;;;;15.53;65.92;101699.75;5071821;28;20036;-83
2022/05/05 01:23:21;;;;;;;4.93;4.43;;;;;;;15.54;66.22;101709.47;5071887;28;20033;-83
2022/05/05 01:28:43;;;;;;;5.30;4.47;;;;;;;15.55;66.11;101719.16;5071987;28;20063;-83
2022/05/05 01:31:08;;;;;;;7.13;4.93;;;;;;;15.56;65.95;101711.34;5070740;28;20099;-82
2022/05/05 01:33:35;;;;;;;5.10;4.47;;;;;;;15.56;65.95;101715.72;5076825;28;20056;-83
2022/05/05 01:36:00;;;;;;;5.90;4.78;;;;;;;15.47;65.95;101698.63;5073432;28;20035;-84
2022/05/05 01:38:37;;;;;;;5.45;4.63;;;;;;;15.50;65.69;101712.78;5071720;28;20020;-83
2022/05/05 01:41:14;;;;;;;6.25;4.47;;;;;;;15.57;66.09;101714.88;5071646;28;20025;-83
2022/05/05 01:43:43;;;;;;;5.45;4.50;;;;;;;15.57;65.62;101717.50;5070005;28;20470;-83
2022/05/05 01:46:08;;;;;;;5.10;4.50;;;;;;;15.55;65.62;101716.53;5070024;28;20028;-83
2022/05/05 01:48:34;;;;;;;6.30;4.53;;;;;;;15.49;65.77;101711.84;5070794;28;20546;-83
2022/05/05 01:51:01;;;;;;;5.47;4.80;;;;;;;15.48;65.92;101710.06;5069630;28;20028;-83
2022/05/05 01:53:26;;;;;;;6.28;4.60;;;;;;;15.51;65.77;101725.09;5069990;28;20028;-83
2022/05/05 01:55:52;;;;;;;6.68;4.68;;;;;;;15.50;65.81;101725.94;5070750;28;20146;-83
2022/05/05 01:58:18;;;;;;;5.90;4.85;;;;;;;15.46;65.57;101706.44;5071139;28;20092;-84
2022/05/05 02:00:43;;;;;;;6.18;5.03;;;;;;;15.48;65.94;101724.13;5071052;28;20408;-83
2022/05/05 02:03:12;;;;;;;6.82;4.35;;;;;;;15.48;65.97;101721.47;5069808;28;20036;-83
2022/05/05 02:05:42;;;;;;;5.20;4.55;;;;;;;15.42;65.91;101721.19;5070480;28;20036;-83
2022/05/05 02:08:09;;;;;;;6.10;4.72;;;;;;;15.50;65.81;101734.72;5070278;28;20067;-83
2022/05/05 02:10:35;;;;;;;5.78;4.28;;;;;;;15.48;65.84;101741.66;5070619;28;20535;-83
2022/05/05 02:13:01;;;;;;;6.85;4.65;;;;;;;15.50;65.68;101741.72;5071339;28;20017;-83
2022/05/05 02:15:28;;;;;;;5.95;4.63;;;;;;;15.41;65.70;101737.81;5070559;28;20040;-83
2022/05/05 02:17:53;;;;;;;5.95;4.75;;;;;;;15.39;65.76;101728.94;5070939;28;20031;-83
2022/05/05 02:20:19;;;;;;;5.78;4.55;;;;;;;15.35;65.81;101726.97;5069265;28;20095;-83
2022/05/05 02:22:44;;;;;;;6.95;4.47;;;;;;;15.44;65.84;101729.16;5070991;28;20081;-83
2022/05/05 02:25:10;;;;;;;5.40;4.50;;;;;;;15.38;65.69;101723.59;5069321;28;20058;-82
2022/05/05 02:27:50;;;;;;;5.13;4.35;;;;;;;15.42;65.91;101730.81;5069792;28;20033;-83
2022/05/05 02:30:20;;;;;;;5.70;5.10;;;;;;;15.44;65.76;101739.69;5069675;28;20479;-82
2022/05/05 02:32:46;;;;;;;5.97;4.80;;;;;;;15.42;65.84;101733.44;5070821;28;20029;-82
2022/05/05 02:35:11;;;;;;;5.38;4.50;;;;;;;15.27;65.73;101713.44;5070151;28;20404;-81
2022/05/05 02:40:21;;;;;;;5.20;4.30;;;;;;;15.41;65.92;101729.91;5070918;28;20043;-82
2022/05/05 02:42:47;;;;;;;5.70;4.40;;;;;;;15.23;66.03;101700.94;5069499;28;20107;-84
2022/05/05 02:45:13;;;;;;;7.80;4.95;;;;;;;15.36;65.80;101734.03;5068686;28;20036;-82
2022/05/05 02:47:38;;;;;;;5.65;4.43;;;;;;;15.34;65.95;101733.03;5070686;28;20021;-82
2022/05/05 02:50:05;;;;;;;7.18;5.03;;;;;;;15.37;65.89;101751.66;5070530;28;20035;-82
2022/05/05 02:52:30;;;;;;;;;;;;;;;15.38;66.00;101750.81;5070550;28;20020;-82
2022/05/05 02:54:56;;;;;;;4.97;4.22;;;;;;;15.30;66.03;101740.72;5070372;28;20405;-82
2022/05/05 02:57:23;;;;;;;5.85;4.50;;;;;;;15.32;66.16;101754.84;5070469;28;20552;-82
2022/05/05 02:59:50;;;;;;;5.72;4.43;;;;;;;15.26;66.13;101737.94;5070652;28;20107;-82
2022/05/05 03:02:17;;;;;;;6.00;5.10;;;;;;;15.36;66.05;101743.66;5070187;28;20444;-82
2022/05/05 03:04:43;;;;;;;6.28;4.93;;;;;;;15.34;65.75;101742.69;5068845;28;20077;-82
2022/05/05 03:07:09;;;;;;;6.15;4.80;;;;;;;15.33;65.87;101754.94;5070182;28;20033;-82
2022/05/05 03:09:35;;;;;;;5.82;4.80;;;;;;;15.31;66.00;101751.34;5072002;28;20517;-83
2022/05/05 03:12:01;;;;;;;6.47;4.65;;;;;;;15.34;65.78;101750.56;5072926;28;20044;-82
2022/05/05 03:14:27;;;;;;;5.22;4.65;;;;;;;15.26;65.83;101734.38;5073521;28;20028;-82
2022/05/05 03:16:53;;;;;;;5.32;4.78;;;;;;;15.31;66.07;101751.34;5072969;28;20118;-82
2022/05/05 03:19:18;;;;;;;5.25;4.57;;;;;;;15.32;65.94;101750.50;5074318;28;20064;-82
2022/05/05 03:21:44;;;;;;;5.72;4.22;;;;;;;15.28;65.84;101753.78;5073906;28;20451;-82
2022/05/05 03:24:10;;;;;;;8.40;5.32;;;;;;;15.21;65.71;101728.91;5072121;28;20033;-81
2022/05/05 03:26:36;;;;;;;5.43;4.65;;;;;;;15.13;65.70;101719.72;5073840;28;20475;-82
2022/05/05 03:29:04;;;;;;;7.40;4.60;;;;;;;15.30;65.60;101751.25;5074044;28;20039;-81
2022/05/05 03:31:30;;;;;;;5.95;4.65;;;;;;;15.21;65.64;101742.06;5073472;28;20020;-82
2022/05/05 03:33:56;;;;;;;;;;;;;;;15.33;65.97;101757.56;5074026;28;20035;-82
2022/05/05 03:36:23;;;;;;;5.38;4.80;;;;;;;15.24;65.96;101754.50;5073466;28;19916;-82
2022/05/05 03:38:49;;;;;;;6.45;4.90;;;;;;;15.09;65.79;101724.75;5053600;28;20024;-82
2022/05/05 03:41:14;;;;;;;5.60;4.63;;;;;;;15.26;65.93;101758.06;5073672;28;20021;-83
2022/05/05 03:43:40;;;;;;;4.95;4.47;;;;;;;15.25;65.92;101761.53;5073602;28;20109;-82
2022/05/05 03:46:06;;;;;;;5.63;4.78;;;;;;;15.21;65.92;101762.22;5073106;28;20025;-82
2022/05/05 03:48:32;;;;;;;5.05;4.55;;;;;;;15.07;66.12;101738.75;5072312;28;20035;-82
2022/05/05 03:50:58;;;;;;;7.03;4.75;;;;;;;15.19;65.87;101758.59;5073516;28;20440;-83
2022/05/05 03:53:23;;;;;;;6.45;4.25;;;;;;;15.21;65.96;101760.47;5067532;28;20037;-83
2022/05/05 03:55:49;;;;;;;5.43;4.53;;;;;;;15.12;66.05;101756.50;5058288;28;20025;-83
2022/05/05 03:58:15;;;;;;;5.38;4.50;;;;;;;15.14;66.17;101763.63;5069996;28;20055;-82
2022/05/05 04:00:40;;;;;;;4.93;4.40;;;;;;;15.02;66.08;101748.09;5070142;28;20020;-83
2022/05/05 04:05:50;;;;;;;6.07;4.57;;;;;;;15.15;66.09;101811.88;5072577;28;20039;-82
2022/05/05 04:08:16;;;;;;;5.63;4.53;;;;;;;15.18;65.94;101806.81;5068803;28;20033;-83
2022/05/05 04:10:41;;;;;;;5.35;4.32;;;;;;;15.14;66.00;101796.94;5064001;28;20486;-82
2022/05/05 04:13:07;;;;;;;5.68;4.70;;;;;;;15.18;66.38;101791.00;5057895;28;20474;-82
2022/05/05 04:15:33;;;;;;;5.63;4.50;;;;;;;15.20;65.96;101792.00;5071079;28;20481;-83
2022/05/05 04:18:02;;;;;;;5.55;4.55;;;;;;;15.16;66.00;101793.56;5072737;28;20098;-90
2022/05/05 04:20:27;;;;;;;5.13;4.38;;;;;;;15.18;66.02;101814.69;5072802;28;20067;-85
2022/05/05 04:22:53;;;;;;;5.53;4.20;;;;;;;15.17;66.10;101807.59;5070054;28;20608;-84
2022/05/05 04:25:19;;;;;;;5.72;4.45;;;;;;;14.88;65.96;101746.50;5057010;28;20108;-84
2022/05/05 04:27:49;;;;;;;6.65;4.63;;;;;;;15.15;66.21;101810.16;5064899;28;20528;-84
2022/05/05 04:30:16;;;;;;;6.05;4.40;;;;;;;15.12;66.27;101809.13;5079163;28;20024;-82
2022/05/05 04:32:45;;;;;;;6.45;5.05;;;;;;;15.12;66.03;101806.47;5082729;28;20062;-81
2022/05/05 04:35:11;;;;;;;7.25;4.97;;;;;;;15.01;66.19;101803.28;5070569;28;20490;-84
2022/05/05 04:37:37;;;;;;;5.63;4.60;;;;;;;15.05;66.14;101813.16;5066334;28;20048;-84
2022/05/05 04:40:03;;;;;;;5.57;4.70;;;;;;;14.97;66.18;101801.31;5071809;28;20040;-84
2022/05/05 04:42:28;;;;;;;5.07;4.57;;;;;;;15.02;66.30;101816.50;5086853;28;20401;-84
2022/05/05 04:44:54;;;;;;;5.78;4.97;;;;;;;14.99;66.32;101820.72;5071932;28;20036;-85
2022/05/05 04:47:20;;;;;;;7.88;4.95;;;;;;;14.97;66.04;101819.72;5071696;28;20036;-84
2022/05/05 04:49:45;;;;;;;5.47;4.40;;;;;;;15.00;66.28;101810.25;5072192;28;20520;-85
2022/05/05 04:52:11;;;;;;;6.93;4.80;;;;;;;14.97;66.38;101819.72;5070949;28;20037;-85
2022/05/05 04:54:36;;;;;;;5.72;4.65;;;;;;;15.02;65.73;101816.50;5071846;28;20032;-85
2022/05/05 04:57:02;;;;;;;6.63;4.70;;;;;;;14.88;65.94;101791.22;5080220;28;20025;-85
2022/05/05 04:59:29;;;;;;;5.40;4.65;;;;;;;14.96;66.40;101812.66;5070861;28;20028;-85
2022/05/05 05:01:54;;;;;;;;;;;;;;;14.99;66.39;101811.09;5078337;28;20025;-85
2022/05/05 05:04:20;;;;;;;5.38;4.55;;;;;;;14.91;66.22;101807.16;5072112;28;19942;-85
2022/05/05 05:06:45;;;;;;;7.35;4.65;;;;;;;14.80;66.25;101792.53;5069891;28;20028;-85
2022/05/05 05:09:11;;;;;;;6.63;5.10;;;;;;;14.84;66.52;101800.66;5071527;28;20528;-85
2022/05/05 05:11:36;;;;;;;6.25;4.90;;;;;;;14.89;66.59;101824.56;5074386;28;20482;-85
2022/05/05 05:14:02;;;;;;;7.70;5.00;;;;;;;14.90;66.49;101813.25;5071449;28;20033;-86
2022/05/05 05:16:28;;;;;;;5.55;4.60;;;;;;;14.95;66.58;101830.16;5066809;28;20065;-85
2022/05/05 05:18:55;;;;;;;6.45;4.57;;;;;;;14.73;66.06;101788.69;5068909;28;20045;-84
2022/05/05 05:21:21;;;;;;;6.05;4.72;;;;;;;14.87;66.80;101818.31;5071084;28;20455;-86
2022/05/05 05:23:46;;;;;;;6.70;4.97;;;;;;;14.90;66.73;101822.84;5086174;28;20024;-85
2022/05/05 05:26:13;;;;;;;5.20;4.53;;;;;;;14.92;66.80;101824.75;5071148;28;20032;-85
2022/05/05 05:28:42;;;;;;;6.55;4.40;;;;;;;14.77;66.84;101803.78;5071445;28;20111;-85
2022/05/05 05:31:08;;;;;;;6.05;4.80;;;;;;;14.74;66.76;101797.47;5070998;28;20021;-86
2022/05/05 05:33:34;;;;;;;5.70;4.47;;;;;;;14.93;66.83;101834.44;5070028;28;20024;-85
2022/05/05 05:36:00;;;;;;;5.43;4.28;;;;;;;14.88;66.99;101832.38;5071163;28;20039;-82
2022/05/05 05:38:26;;;;;;;6.45;4.80;;;;;;;14.81;66.86;101815.38;5072111;28;20032;-84
2022/05/05 05:40:52;;;;;;;6.70;4.82;;;;;;;14.87;67.23;101842.00;5070111;28;20421;-85
2022/05/05 05:43:17;;;;;;;5.43;4.60;;;;;;;14.81;67.02;101818.00;5059937;28;20045;-84
2022/05/05 05:45:44;;;;;;;6.18;5.00;;;;;;;14.81;67.05;101826.78;5050939;28;20428;-83
2022/05/05 05:48:10;;;;;;;5.53;4.80;;;;;;;14.72;67.20;101815.78;5051603;28;20025;-84
2022/05/05 05:50:37;;;;;;;5.05;4.43;;;;;;;14.89;67.04;101848.25;5066917;28;20036;-83
2022/05/05 05:53:03;;;;;;;6.15;4.90;;;;;;;14.83;67.09;101843.53;5059562;28;20107;-84
2022/05/05 05:55:28;;;;;;;7.68;4.78;;;;;;;14.79;67.29;101830.16;5069941;28;20107;-83
2022/05/05 05:57:54;;;;;;;5.60;4.45;;;;;;;14.85;67.37;101851.53;5068895;28;20486;-84
2022/05/05 06:00:20;;;;;;;6.47;4.95;;;;;;;14.84;67.27;101841.84;5059451;28;20386;-83
2022/05/05 06:05:30;;;;;;;5.28;4.40;;;;;;;14.85;67.44;101851.53;5051157;28;20039;-83
2022/05/05 06:08:03;;;;;;;5.35;4.60;;;;;;;14.87;67.70;101857.78;5065668;28;20100;-83
2022/05/05 06:10:29;;;;;;;6.13;5.00;;;;;;;14.89;67.59;101864.03;5074701;28;20037;-83
2022/05/05 06:12:55;;;;;;;;;;;;;;;14.92;67.38;101863.28;5059965;28;20035;-85
2022/05/05 06:15:22;;;;;;;6.55;4.82;;;;;;;14.84;66.99;101845.38;5081124;28;20455;-85
2022/05/05 06:17:49;;;;;;;4.90;4.40;;;;;;;14.87;67.60;101855.16;5065734;28;20024;-83
2022/05/05 06:20:14;;;;;;;5.47;4.55;;;;;;;14.53;67.85;101826.09;5061103;28;20120;-84
2022/05/05 06:22:40;;;;;;;5.93;4.65;;;;;;;14.88;67.86;101880.63;5060586;28;20028;-85
2022/05/05 06:25:07;;;;;;;5.00;4.40;;;;;;;14.85;67.96;101878.72;5066594;28;20037;-84
2022/05/05 06:27:33;;;;;;;7.95;4.93;;;;;;;14.89;67.80;101879.81;5059400;28;20033;-84
2022/05/05 06:30:03;;;;;;;5.28;4.63;;;;;;;14.91;67.90;101877.25;5053554;28;20418;-83
2022/05/05 06:32:29;;;;;;;6.30;4.90;;;;;;;14.94;67.71;101885.31;5070376;28;20119;-85
2022/05/05 06:34:55;;;;;;;7.30;4.82;;;;;;;14.90;67.58;101885.97;5070870;28;20655;-83
2022/05/05 06:37:22;;;;;;;9.23;5.00;;;;;;;14.90;67.98;101900.03;5070114;28;20035;-84
2022/05/05 06:39:49;;;;;;;5.25;4.75;;;;;;;14.90;67.83;101904.38;5070687;28;20413;-84
2022/05/05 06:42:15;;;;;;;;;;;;;;;14.91;68.01;101906.19;5070287;28;20036;-84
2022/05/05 06:44:41;;;;;;;5.32;4.72;;;;;;;14.47;68.09;101831.91;5070434;28;19919;-84
2022/05/05 06:47:07;;;;;;;6.43;5.05;;;;;;;14.62;68.09;101866.03;5071979;28;20020;-83
2022/05/05 06:49:33;;;;;;;6.43;4.95;;;;;;;14.92;68.13;101908.00;5065626;28;20044;-84
2022/05/05 06:52:02;;;;;;;5.93;4.43;;;;;;;14.81;68.11;101895.16;5073297;28;20025;-84
2022/05/05 06:54:28;;;;;;;5.70;4.95;;;;;;;14.93;67.98;101912.44;5072197;28;20036;-83
2022/05/05 06:56:57;;;;;;;5.32;4.50;;;;;;;14.91;68.21;101916.72;5072997;28;20021;-85
2022/05/05 06:59:23;;;;;;;6.00;4.90;;;;;;;14.81;68.27;101897.78;5072433;28;20028;-84
2022/05/05 07:02:03;;;;;;;6.35;4.32;;;;;;;14.91;68.10;101908.81;5073902;28;20024;-85
2022/05/05 07:07:36;;;;;;;5.57;5.03;;;;;;;14.90;68.27;101907.00;5032130;28;20064;-84
2022/05/05 07:12:46;;;;;;;5.90;4.63;;;;;;;14.90;68.47;101912.25;5053277;28;20590;-83
2022/05/05 07:15:12;;;;;;;6.38;4.57;;;;;;;14.88;68.00;101909.56;5057976;28;20036;-84
2022/05/05 07:17:38;;;;;;;9.88;4.95;;;;;;;15.10;67.53;101923.88;5072999;28;20024;-84
2022/05/05 07:20:04;;;;;;;6.90;4.38;;;;;;;15.03;67.47;101912.13;5057798;28;20099;-84
2022/05/05 07:22:29;;;;;;;7.40;4.55;;;;;;;15.07;67.43;101933.41;5034404;28;20029;-84
2022/05/05 07:24:55;;;;;;;4.85;4.03;;;;;;;15.00;67.50;101915.47;5036498;28;20032;-83
2022/05/05 07:27:39;;;;;;;5.88;4.80;;;;;;;15.16;67.33;101942.63;5053986;28;20564;-83
2022/05/05 07:30:05;;;;;;;5.38;4.50;;;;;;;15.10;67.30;101944.94;5050928;28;20033;-84
2022/05/05 07:32:31;;;;;;;;;;;;;;;15.21;67.28;101946.41;5059908;28;20024;-84
2022/05/05 07:34:57;;;;;;;6.57;4.38;;;;;;;15.11;67.02;101918.69;5069575;28;19916;-83
2022/05/05 07:37:22;;;;;;;7.07;3.97;;;;;;;15.30;67.06;101951.25;5051173;28;20036;-83
2022/05/05 07:39:48;;;;;;;7.38;4.25;;;;;;;14.98;67.32;101898.69;5063118;28;20120;-83
2022/05/05 07:42:13;;;;;;;4.55;3.85;;;;;;;15.34;67.11;101959.41;5051696;28;20029;-83
2022/05/05 07:44:39;;;;;;;5.55;4.45;;;;;;;15.34;67.01;101951.50;5059318;28;20510;-84
2022/05/05 07:47:05;;;;;;;5.85;4.13;;;;;;;15.20;66.88;101918.31;5071856;28;20029;-84
2022/05/05 07:49:30;;;;;;;4.93;3.78;;;;;;;15.31;67.23;101961.88;5053421;28;20029;-84
2022/05/05 07:51:56;;;;;;;4.63;4.22;;;;;;;14.99;67.37;101905.78;5053596;28;20550;-83
2022/05/05 07:54:43;;;;;;;5.07;3.83;;;;;;;14.79;67.64;101890.63;5052748;28;20060;-83
2022/05/05 07:57:12;;;;;;;5.30;3.90;;;;;;;15.31;67.31;101960.97;5062594;28;20025;-84
2022/05/05 07:59:39;;;;;;;5.78;4.30;;;;;;;15.32;67.37;101946.97;5059836;28;20029;-84
2022/05/05 08:02:09;;;;;;;7.18;4.13;;;;;;;15.24;67.50;101954.50;5052254;28;20029;-84
2022/05/05 08:04:34;;;;;;;3.92;3.55;;;;;;;15.25;67.44;101956.28;5050170;28;20029;-84
2022/05/05 08:07:00;;;;;;;6.75;3.85;;;;;;;15.27;66.87;101954.63;5065356;28;20486;-84
2022/05/05 08:09:26;;;;;;;4.72;3.90;;;;;;;15.19;67.35;101938.41;5072065;28;20290;-83
2022/05/05 08:11:52;;;;;;;4.55;3.60;;;;;;;15.05;67.77;101926.28;5086084;28;20409;-84
2022/05/05 08:14:18;;;;;;;3.92;3.53;;;;;;;15.12;67.69;101946.81;5092471;28;20513;-83
2022/05/05 08:16:43;;;;;;;4.38;3.60;;;;;;;15.04;68.11;101940.22;5092365;28;20485;-83
2022/05/05 08:19:09;;;;;;;3.67;3.35;;;;;;;15.18;68.31;101955.06;5092118;28;20111;-84
2022/05/05 08:21:35;;;;;;;6.93;3.63;;;;;;;15.22;68.08;101957.03;5063578;28;20444;-84
2022/05/05 08:29:30;;;;;;;4.95;3.60;;;;;;;15.45;67.29;101957.34;5053203;28;20115;-84
2022/05/05 08:31:56;;;;;;;5.30;3.33;;;;;;;15.39;67.71;101952.66;5052767;28;20048;-84
2022/05/05 08:34:21;;;;;;;6.63;3.78;;;;;;;15.35;67.91;101958.59;5069122;28;20486;-83
2022/05/05 08:36:47;;;;;;;6.80;3.47;;;;;;;15.34;68.16;101958.50;5072450;28;20036;-84
2022/05/05 08:39:13;;;;;;;6.43;3.45;;;;;;;15.38;68.04;101942.94;5071546;28;20024;-83
2022/05/05 08:41:40;;;;;;;9.02;3.88;;;;;;;15.38;68.11;101942.06;5067279;28;20036;-84
2022/05/05 08:44:06;;;;;;;9.38;4.45;;;;;;;15.33;68.36;101954.97;5071521;28;20031;-84
2022/05/05 08:46:34;;;;;;;7.80;3.60;;;;;;;15.38;68.34;101963.09;5070711;28;20032;-83
2022/05/05 08:49:05;;;;;;;8.38;3.55;;;;;;;15.36;68.47;101960.38;5071719;28;20024;-83
2022/05/05 08:51:58;;;;;;;5.30;3.30;;;;;;;15.35;68.58;101955.97;5070079;28;20036;-84
2022/05/05 08:54:25;;;;;;;6.65;3.60;;;;;;;15.41;68.08;101958.03;5051197;28;20071;-83
2022/05/05 08:56:52;;;;;;;7.07;3.60;;;;;;;15.35;68.44;101952.44;5052389;28;20060;-84
2022/05/05 08:59:19;;;;;;;4.63;3.00;;;;;;;15.41;67.92;101947.50;5067770;28;20096;-84
2022/05/05 09:01:44;;;;;;;7.03;3.20;;;;;;;15.38;67.72;101939.41;5067520;28;20082;-84
2022/05/05 09:04:10;;;;;;;6.63;3.47;;;;;;;15.47;67.58;101950.44;5052273;28;20112;-83
2022/05/05 09:06:44;;;;;;;5.00;3.60;;;;;;;15.45;67.70;101947.72;5051406;28;20467;-84
2022/05/05 09:09:32;;;;;;;7.28;3.70;;;;;;;15.55;68.45;101956.09;5051048;28;20497;-83
2022/05/05 09:12:11;;;;;;;5.88;3.50;;;;;;;15.55;68.49;101959.63;5052045;28;20573;-83
2022/05/05 09:14:43;;;;;;;6.07;3.40;;;;;;;15.47;69.08;101939.91;5050948;28;20086;-83
2022/05/05 09:17:11;;;;;;;8.02;3.85;;;;;;;15.51;69.83;101933.97;5050663;28;20093;-83
2022/05/05 09:19:38;;;;;;;5.80;3.58;;;;;;;15.60;69.30;101957.25;5050737;28;20085;-84
2022/05/05 09:22:05;;;;;;;5.13;3.58;;;;;;;15.61;68.39;101953.81;5049634;28;20021;-84
2022/05/05 09:27:31;;;;;;;7.43;3.55;;;;;;;15.63;68.44;101950.41;5050981;28;20029;-83
2022/05/05 09:30:14;;;;;;;8.93;3.90;;;;;;;15.64;68.78;101954.88;5049778;28;20033;-84
2022/05/05 09:32:42;;;;;;;10.65;3.70;;;;;;;15.60;68.47;101944.06;5050899;28;20522;-83
2022/05/05 09:35:15;;;;;;;6.47;3.70;;;;;;;15.71;66.29;101956.09;5049801;28;20028;-83
2022/05/05 09:37:48;;;;;;;9.55;4.00;;;;;;;15.70;68.34;101963.91;5049617;28;20548;-84
2022/05/05 09:40:20;;;;;;;7.40;4.30;;;;;;;15.67;68.49;101954.13;5049756;28;20028;-84
2022/05/05 09:42:50;;;;;;;7.82;4.10;;;;;;;15.62;68.98;101945.06;5050907;28;20021;-83
2022/05/05 09:45:26;;;;;;;8.60;3.85;;;;;;;15.74;69.41;101958.91;5049689;28;20025;-82
2022/05/05 09:47:57;;;;;;;7.03;4.15;;;;;;;15.74;68.55;101951.00;5051127;28;20061;-83
2022/05/05 09:50:25;;;;;;;5.45;4.03;;;;;;;15.76;68.64;101956.38;5049622;28;20029;-83
2022/05/05 09:58:23;;;;;;;8.27;4.25;;;;;;;15.79;68.86;101945.97;5050917;28;20078;-83
2022/05/05 10:01:00;;;;;;;8.18;4.00;;;;;;;15.86;68.74;101951.66;5066305;28;20017;-83
2022/05/05 10:04:05;;;;;;;10.90;4.25;;;;;;;15.83;68.74;101959.41;5049572;28;20059;-83
2022/05/05 10:06:37;;;;;;;7.43;4.40;;;;;;;15.72;68.97;101933.31;5050823;28;20029;-83
2022/05/05 10:09:05;;;;;;;6.80;4.25;;;;;;;15.84;69.10;101957.66;5062812;28;20500;-84
2022/05/05 10:11:31;;;;;;;7.05;4.43;;;;;;;15.78;69.03;101952.06;5069451;28;20502;-84
2022/05/05 10:13:57;;;;;;;;;;;;;;;15.87;69.06;101956.09;5069896;28;20509;-83
2022/05/05 10:16:23;;;;;;;6.10;4.35;;;;;;;15.89;68.85;101953.53;5086186;28;19913;-83
2022/05/05 10:18:50;;;;;;;6.75;4.40;;;;;;;15.81;69.07;101936.41;5074910;28;20032;-82
2022/05/05 10:21:40;;;;;;;5.97;4.13;;;;;;;15.74;69.42;101932.56;5077441;28;20037;-83
2022/05/05 10:24:09;;;;;;;7.72;4.25;;;;;;;15.87;69.28;101950.84;5077611;28;20035;-83
2022/05/05 10:26:35;;;;;;;6.55;4.28;;;;;;;15.88;69.29;101952.63;5076329;28;20036;-83
2022/05/05 10:29:02;;;;;;;6.65;4.05;;;;;;;15.80;69.60;101932.88;5076474;28;20028;-83
2022/05/05 10:31:30;;;;;;;;;;;;;;;15.94;69.46;101948.47;5076431;28;20387;-83
2022/05/05 10:34:03;;;;;;;6.25;4.13;;;;;;;15.90;69.84;101951.81;5077466;28;19942;-83
2022/05/05 10:36:29;;;;;;;6.75;4.13;;;;;;;15.87;69.59;101939.38;5075994;28;20489;-84
2022/05/05 10:38:55;;;;;;;;;;;;;;;15.96;69.56;101941.56;5077873;28;20612;-84
2022/05/05 10:41:40;;;;;;;6.53;4.47;;;;;;;15.97;69.46;101949.56;5077426;28;20011;-83
2022/05/05 10:44:22;;;;;;;5.03;3.90;;;;;;;15.95;69.50;101945.94;5075568;28;20082;-83
2022/05/05 10:47:04;;;;;;;6.43;4.63;;;;;;;16.01;69.52;101956.78;5077054;28;20425;-84
2022/05/05 10:49:37;;;;;;;5.55;4.57;;;;;;;16.05;69.35;101956.13;5076250;28;20021;-83
2022/05/05 10:52:09;;;;;;;6.35;4.35;;;;;;;16.03;69.62;101964.78;5077271;28;20043;-83
2022/05/05 10:54:39;;;;;;;5.30;4.00;;;;;;;16.01;69.64;101966.44;5077213;28;20047;-83
2022/05/05 10:57:26;;;;;;;8.05;4.65;;;;;;;16.00;69.99;101969.88;5076008;28;20500;-83
2022/05/05 11:00:11;;;;;;;7.72;4.40;;;;;;;15.91;69.87;101949.25;5077388;28;20029;-83
2022/05/05 11:02:58;;;;;;;7.13;4.40;;;;;;;16.03;69.80;101964.78;5076178;28;20405;-83
2022/05/05 11:05:28;;;;;;;7.47;4.30;;;;;;;16.08;69.59;101979.97;5076798;28;20060;-84
2022/05/05 11:08:09;;;;;;;7.15;4.40;;;;;;;16.08;69.57;101974.72;5075864;28;20031;-83
2022/05/05 11:13:39;;;;;;;6.25;4.30;;;;;;;16.08;69.50;101965.91;5076084;28;20047;-83
2022/05/05 11:22:12;;;;;;;7.05;4.28;;;;;;;16.12;69.58;101978.41;5077258;28;20051;-84
2022/05/05 11:24:39;;;;;;;6.15;4.20;;;;;;;16.11;68.92;101987.16;5075888;28;20031;-84
2022/05/05 11:27:10;;;;;;;7.28;4.40;;;;;;;15.99;69.27;101974.25;5077000;28;20028;-84
2022/05/05 11:29:35;;;;;;;7.95;4.28;;;;;;;16.11;69.21;101979.25;5073355;28;20016;-84
2022/05/05 11:32:04;;;;;;;6.45;4.40;;;;;;;16.10;69.27;101982.69;5072375;28;20029;-84
2022/05/05 11:34:36;;;;;;;6.18;4.13;;;;;;;16.17;69.07;101983.91;5072501;28;20056;-83
2022/05/05 11:37:03;;;;;;;5.95;4.25;;;;;;;16.19;69.03;101996.38;5089237;28;20032;-83
2022/05/05 11:39:29;;;;;;;7.72;4.40;;;;;;;16.14;68.90;101981.13;5072486;28;20029;-83
2022/05/05 11:42:07;;;;;;;;;;;;;;;16.23;68.79;101990.44;5074044;28;20035;-83
2022/05/05 11:44:36;;;;;;;;;;;;;;;16.23;68.85;101986.84;5089435;28;19909;-83
2022/05/05 11:47:16;;;;;;;7.85;4.35;;;;;;;16.16;69.19;101980.38;5072295;28;20317;-84
2022/05/05 11:49:46;;;;;;;5.10;4.07;;;;;;;16.14;69.30;101974.13;5073617;28;20025;-84
2022/05/05 11:52:19;;;;;;;8.00;4.40;;;;;;;16.19;69.18;101977.00;5072362;28;20017;-83
2022/05/05 11:54:53;;;;;;;7.40;4.40;;;;;;;16.09;69.19;101973.00;5073503;28;20051;-84
2022/05/05 11:57:35;;;;;;;6.75;4.50;;;;;;;16.25;69.16;101993.13;5071864;28;20029;-83
2022/05/05 12:02:45;;;;;;;5.40;3.95;;;;;;;16.22;69.14;101980.69;5073364;28;20125;-84
2022/05/05 12:05:12;;;;;;;6.30;4.45;;;;;;;16.14;69.40;101965.31;5073266;28;20082;-83
2022/05/05 12:07:37;;;;;;;;;;;;;;;16.23;69.04;101974.63;5072407;28;20062;-84
2022/05/05 12:10:07;;;;;;;6.55;4.25;;;;;;;16.18;69.44;101975.19;5073381;28;20007;-84
2022/05/05 12:12:36;;;;;;;8.13;4.40;;;;;;;16.20;69.59;101990.25;5071964;28;20028;-84
2022/05/05 12:15:05;;;;;;;8.05;4.53;;;;;;;16.25;69.69;101991.38;5071906;28;20502;-84
2022/05/05 12:17:41;;;;;;;8.63;4.95;;;;;;;16.26;69.45;101992.31;5072197;28;20035;-83
2022/05/05 12:20:09;;;;;;;8.85;4.72;;;;;;;16.27;69.37;101983.56;5071834;28;20405;-83
2022/05/05 12:22:39;;;;;;;6.53;3.88;;;;;;;16.19;69.36;101962.09;5073235;28;20025;-83